createdAt,value
2023-05-02T00:00:12.401Z,953.9
2023-05-02T00:01:14.170Z,953.9
2023-05-02T00:02:16.360Z,953.9
2023-05-02T00:03:19.139Z,953.9
2023-05-02T00:04:21.487Z,953.9
2023-05-02T00:05:23.604Z,954
2023-05-02T00:06:25.716Z,954
2023-05-02T00:07:27.727Z,954
2023-05-02T00:08:29.447Z,953.9
2023-05-02T00:09:31.226Z,954
2023-05-02T00:10:33.124Z,954
2023-05-02T00:11:34.689Z,953.9
2023-05-02T00:12:36.569Z,954
2023-05-02T00:13:38.293Z,954
2023-05-02T00:14:40.054Z,953.9
2023-05-02T00:15:41.871Z,954
2023-05-02T00:16:43.805Z,954
2023-05-02T00:17:45.838Z,953.9
2023-05-02T00:18:47.658Z,953.9
2023-05-02T00:19:49.462Z,954
2023-05-02T00:20:51.399Z,954
2023-05-02T00:21:53.321Z,954
2023-05-02T00:22:55.178Z,954
2023-05-02T00:23:57.022Z,954
2023-05-02T00:24:58.812Z,954
2023-05-02T00:26:00.604Z,954
2023-05-02T00:27:02.355Z,954
2023-05-02T00:28:04.214Z,954
2023-05-02T00:29:06.056Z,954
2023-05-02T00:30:07.822Z,954
2023-05-02T00:31:09.760Z,954.1
2023-05-02T00:32:11.596Z,954
2023-05-02T00:33:13.903Z,954
2023-05-02T00:34:16.058Z,954.1
2023-05-02T00:35:17.999Z,954.1
2023-05-02T00:36:19.920Z,954.1
2023-05-02T00:37:21.794Z,954.1
2023-05-02T00:38:23.630Z,954.1
2023-05-02T00:39:25.453Z,954.1
2023-05-02T00:40:27.325Z,954.1
2023-05-02T00:41:29.102Z,954.1
2023-05-02T00:42:30.818Z,954.1
2023-05-02T00:43:32.570Z,954.1
2023-05-02T00:44:34.304Z,954.1
2023-05-02T00:45:35.888Z,954.2
2023-05-02T00:46:37.847Z,954.2
2023-05-02T00:47:39.791Z,954.2
2023-05-02T00:48:41.729Z,954.2
2023-05-02T00:49:43.497Z,954.2
2023-05-02T00:50:45.133Z,954.2
2023-05-02T00:51:46.905Z,954.2
2023-05-02T00:52:48.609Z,954.2
2023-05-02T00:53:50.375Z,954.2
2023-05-02T00:54:52.178Z,954.2
2023-05-02T00:55:53.769Z,954.2
2023-05-02T00:56:55.431Z,954.2
2023-05-02T00:57:57.265Z,954.2
2023-05-02T00:58:59.205Z,954.2
2023-05-02T01:00:01.914Z,954.2
2023-05-02T01:01:04.234Z,954.2
2023-05-02T01:02:06.504Z,954.2
2023-05-02T01:03:08.685Z,954.2
2023-05-02T01:04:10.935Z,954.2
2023-05-02T01:05:13.195Z,954.2
2023-05-02T01:06:15.129Z,954.2
2023-05-02T01:07:16.964Z,954.2
2023-05-02T01:08:18.815Z,954.1
2023-05-02T01:09:20.771Z,954.1
2023-05-02T01:10:22.729Z,954.1
2023-05-02T01:11:24.578Z,954.1
2023-05-02T01:12:26.530Z,954.2
2023-05-02T01:13:28.377Z,954.1
2023-05-02T01:14:30.327Z,954.1
2023-05-02T01:15:32.279Z,954.2
2023-05-02T01:16:34.391Z,954.2
2023-05-02T01:17:36.334Z,954.2
2023-05-02T01:18:37.956Z,954.2
2023-05-02T01:19:39.685Z,954.2
2023-05-02T01:20:41.551Z,954.1
2023-05-02T01:21:43.491Z,954.1
2023-05-02T01:22:45.338Z,954.1
2023-05-02T01:23:47.182Z,954.1
2023-05-02T01:24:49.047Z,954.1
2023-05-02T01:25:53.601Z,954.1
2023-05-02T01:26:55.293Z,954.1
2023-05-02T01:27:57.142Z,954.1
2023-05-02T01:28:58.994Z,954
2023-05-02T01:30:01.785Z,954
2023-05-02T01:31:04.268Z,954
2023-05-02T01:32:06.518Z,954
2023-05-02T01:33:08.682Z,954
2023-05-02T01:34:10.597Z,953.9
2023-05-02T01:35:12.447Z,953.9
2023-05-02T01:36:14.325Z,953.9
2023-05-02T01:37:16.018Z,953.9
2023-05-02T01:38:20.562Z,953.9
2023-05-02T01:39:22.312Z,953.9
2023-05-02T01:40:24.157Z,954
2023-05-02T01:41:25.864Z,954
2023-05-02T01:42:27.646Z,954
2023-05-02T01:43:29.521Z,954
2023-05-02T01:44:31.102Z,954
2023-05-02T01:45:32.789Z,954
2023-05-02T01:46:34.884Z,954.1
2023-05-02T01:47:36.936Z,954.1
2023-05-02T01:48:38.961Z,954.1
2023-05-02T01:49:40.918Z,954.1
2023-05-02T01:50:42.787Z,954.1
2023-05-02T01:51:44.422Z,954.2
2023-05-02T01:52:46.012Z,954.2
2023-05-02T01:53:47.673Z,954.2
2023-05-02T01:54:49.337Z,954.2
2023-05-02T01:55:51.292Z,954.2
2023-05-02T01:56:53.153Z,954.2
2023-05-02T01:57:54.921Z,954.2
2023-05-02T01:58:56.748Z,954.2
2023-05-02T01:59:59.631Z,954.2
2023-05-02T02:01:02.339Z,954.2
2023-05-02T02:02:04.456Z,954.2
2023-05-02T02:03:06.405Z,954.2
2023-05-02T02:04:08.482Z,954.1
2023-05-02T02:05:10.396Z,954.1
2023-05-02T02:06:12.526Z,954.1
2023-05-02T02:07:14.487Z,954.1
2023-05-02T02:08:16.092Z,954.1
2023-05-02T02:09:17.806Z,954.1
2023-05-02T02:10:19.533Z,954.1
2023-05-02T02:11:21.132Z,954.1
2023-05-02T02:12:22.805Z,954.1
2023-05-02T02:13:24.563Z,954.1
2023-05-02T02:14:26.432Z,954.1
2023-05-02T02:15:28.300Z,954.1
2023-05-02T02:16:30.352Z,954.2
2023-05-02T02:17:32.333Z,954.1
2023-05-02T02:18:34.343Z,954.2
2023-05-02T02:19:36.152Z,954.2
2023-05-02T02:20:37.759Z,954.2
2023-05-02T02:21:39.482Z,954.2
2023-05-02T02:22:41.239Z,954.2
2023-05-02T02:23:42.982Z,954.2
2023-05-02T02:24:44.839Z,954.2
2023-05-02T02:25:46.681Z,954.2
2023-05-02T02:26:48.551Z,954.2
2023-05-02T02:27:50.233Z,954.2
2023-05-02T02:28:51.919Z,954.2
2023-05-02T02:29:53.785Z,954.1
2023-05-02T02:30:55.843Z,954.1
2023-05-02T02:31:57.695Z,954.2
2023-05-02T02:32:59.677Z,954.1
2023-05-02T02:34:01.693Z,954.2
2023-05-02T02:35:03.456Z,954.2
2023-05-02T02:36:05.280Z,954.2
2023-05-02T02:37:07.181Z,954.2
2023-05-02T02:38:08.948Z,954.2
2023-05-02T02:39:10.549Z,954.2
2023-05-02T02:40:12.110Z,954.1
2023-05-02T02:41:14.029Z,954.1
2023-05-02T02:42:15.880Z,954.2
2023-05-02T02:43:17.732Z,954.2
2023-05-02T02:44:19.463Z,954.2
2023-05-02T02:45:21.162Z,954.2
2023-05-02T02:46:22.911Z,954.2
2023-05-02T02:47:24.815Z,954.2
2023-05-02T02:48:26.768Z,954.2
2023-05-02T02:49:28.615Z,954.2
2023-05-02T02:50:30.360Z,954.2
2023-05-02T02:51:32.234Z,954.2
2023-05-02T02:52:34.061Z,954.2
2023-05-02T02:53:36.133Z,954.2
2023-05-02T02:54:37.863Z,954.2
2023-05-02T02:55:39.522Z,954.2
2023-05-02T02:56:41.149Z,954.2
2023-05-02T02:57:42.713Z,954.2
2023-05-02T02:58:44.391Z,954.2
2023-05-02T02:59:46.138Z,954.2
2023-05-02T03:00:47.951Z,954.2
2023-05-02T03:01:49.820Z,954.2
2023-05-02T03:02:51.922Z,954.3
2023-05-02T03:03:54.025Z,954.3
2023-05-02T03:04:55.963Z,954.3
2023-05-02T03:05:57.802Z,954.3
2023-05-02T03:06:59.576Z,954.3
2023-05-02T03:08:01.291Z,954.3
2023-05-02T03:09:03.084Z,954.3
2023-05-02T03:10:04.796Z,954.3
2023-05-02T03:11:06.649Z,954.3
2023-05-02T03:12:08.432Z,954.4
2023-05-02T03:13:10.155Z,954.3
2023-05-02T03:14:11.857Z,954.4
2023-05-02T03:15:13.729Z,954.4
2023-05-02T03:16:15.660Z,954.4
2023-05-02T03:17:17.460Z,954.4
2023-05-02T03:18:19.518Z,954.4
2023-05-02T03:19:21.351Z,954.4
2023-05-02T03:20:23.088Z,954.4
2023-05-02T03:21:24.661Z,954.4
2023-05-02T03:22:26.241Z,954.5
2023-05-02T03:23:28.026Z,954.5
2023-05-02T03:24:29.897Z,954.5
2023-05-02T03:25:31.716Z,954.5
2023-05-02T03:26:33.595Z,954.5
2023-05-02T03:27:35.316Z,954.5
2023-05-02T03:28:37.165Z,954.5
2023-05-02T03:29:38.934Z,954.5
2023-05-02T03:30:40.857Z,954.6
2023-05-02T03:31:43.184Z,954.6
2023-05-02T03:32:45.309Z,954.6
2023-05-02T03:33:47.129Z,954.6
2023-05-02T03:34:49.003Z,954.6
2023-05-02T03:35:50.788Z,954.6
2023-05-02T03:36:52.592Z,954.6
2023-05-02T03:37:54.431Z,954.6
2023-05-02T03:38:56.288Z,954.6
2023-05-02T03:39:58.804Z,954.6
2023-05-02T03:41:01.131Z,954.6
2023-05-02T03:42:02.959Z,954.6
2023-05-02T03:43:04.810Z,954.6
2023-05-02T03:44:06.747Z,954.6
2023-05-02T03:45:08.715Z,954.6
2023-05-02T03:46:10.570Z,954.6
2023-05-02T03:47:12.684Z,954.6
2023-05-02T03:48:15.062Z,954.6
2023-05-02T03:49:16.944Z,954.6
2023-05-02T03:50:18.720Z,954.7
2023-05-02T03:51:20.675Z,954.7
2023-05-02T03:52:22.589Z,954.7
2023-05-02T03:53:24.355Z,954.7
2023-05-02T03:54:26.230Z,954.7
2023-05-02T03:55:27.986Z,954.7
2023-05-02T03:56:32.759Z,954.7
2023-05-02T03:57:34.615Z,954.7
2023-05-02T03:58:36.558Z,954.7
2023-05-02T03:59:38.297Z,954.6
2023-05-02T04:00:39.972Z,954.6
2023-05-02T04:01:41.920Z,954.6
2023-05-02T04:02:44.439Z,954.7
2023-05-02T04:03:47.056Z,954.7
2023-05-02T04:04:49.235Z,954.6
2023-05-02T04:05:51.153Z,954.6
2023-05-02T04:06:53.025Z,954.6
2023-05-02T04:07:54.959Z,954.6
2023-05-02T04:08:56.799Z,954.6
2023-05-02T04:09:59.785Z,954.7
2023-05-02T04:11:02.261Z,954.7
2023-05-02T04:12:04.197Z,954.7
2023-05-02T04:13:06.247Z,954.7
2023-05-02T04:14:08.028Z,954.7
2023-05-02T04:15:09.743Z,954.7
2023-05-02T04:16:11.584Z,954.7
2023-05-02T04:17:14.007Z,954.7
2023-05-02T04:18:16.267Z,954.7
2023-05-02T04:19:18.299Z,954.7
2023-05-02T04:20:20.114Z,954.6
2023-05-02T04:21:21.960Z,954.7
2023-05-02T04:22:23.912Z,954.7
2023-05-02T04:23:25.737Z,954.7
2023-05-02T04:24:27.713Z,954.7
2023-05-02T04:25:29.561Z,954.7
2023-05-02T04:26:31.444Z,954.7
2023-05-02T04:27:33.269Z,954.7
2023-05-02T04:28:35.121Z,954.7
2023-05-02T04:29:36.971Z,954.7
2023-05-02T04:30:38.963Z,954.7
2023-05-02T04:31:40.838Z,954.7
2023-05-02T04:32:42.713Z,954.7
2023-05-02T04:33:44.672Z,954.7
2023-05-02T04:34:46.443Z,954.7
2023-05-02T04:35:48.290Z,954.7
2023-05-02T04:36:50.126Z,954.8
2023-05-02T04:37:51.804Z,954.7
2023-05-02T04:38:56.513Z,954.8
2023-05-02T04:39:59.005Z,954.7
2023-05-02T04:41:10.115Z,954.7
2023-05-02T04:42:11.894Z,954.8
2023-05-02T04:43:13.610Z,954.7
2023-05-02T04:44:15.405Z,954.8
2023-05-02T04:45:17.318Z,954.8
2023-05-02T04:46:19.297Z,954.8
2023-05-02T04:47:21.484Z,954.8
2023-05-02T04:48:23.688Z,954.8
2023-05-02T04:49:25.633Z,954.8
2023-05-02T04:50:27.309Z,954.8
2023-05-02T04:51:29.041Z,954.8
2023-05-02T04:52:30.978Z,954.8
2023-05-02T04:53:32.826Z,954.8
2023-05-02T04:54:34.775Z,954.9
2023-05-02T04:55:36.519Z,954.8
2023-05-02T04:56:38.270Z,954.8
2023-05-02T04:57:40.164Z,954.8
2023-05-02T04:58:42.081Z,954.8
2023-05-02T04:59:44.134Z,954.8
2023-05-02T05:00:45.948Z,954.8
2023-05-02T05:01:47.962Z,954.8
2023-05-02T05:02:50.261Z,954.8
2023-05-02T05:03:52.630Z,954.8
2023-05-02T05:04:54.769Z,954.8
2023-05-02T05:05:56.771Z,954.8
2023-05-02T05:06:59.009Z,954.8
2023-05-02T05:08:00.976Z,954.8
2023-05-02T05:09:02.721Z,954.9
2023-05-02T05:10:04.579Z,954.8
2023-05-02T05:11:06.421Z,954.8
2023-05-02T05:12:08.280Z,954.8
2023-05-02T05:13:10.254Z,954.8
2023-05-02T05:14:11.987Z,954.8
2023-05-02T05:15:13.922Z,954.8
2023-05-02T05:16:16.064Z,954.8
2023-05-02T05:17:17.940Z,954.8
2023-05-02T05:18:19.714Z,954.8
2023-05-02T05:19:21.630Z,954.8
2023-05-02T05:20:23.598Z,954.8
2023-05-02T05:21:25.337Z,954.8
2023-05-02T05:22:27.083Z,954.8
2023-05-02T05:23:28.938Z,954.8
2023-05-02T05:24:30.691Z,954.8
2023-05-02T05:25:32.375Z,954.8
2023-05-02T05:26:34.014Z,954.8
2023-05-02T05:27:35.814Z,954.8
2023-05-02T05:28:37.815Z,954.9
2023-05-02T05:29:39.494Z,954.9
2023-05-02T05:30:41.413Z,954.9
2023-05-02T05:31:43.255Z,954.9
2023-05-02T05:32:45.514Z,954.9
2023-05-02T05:33:47.705Z,955
2023-05-02T05:34:49.716Z,955
2023-05-02T05:35:51.396Z,954.9
2023-05-02T05:36:53.060Z,954.9
2023-05-02T05:37:54.725Z,954.9
2023-05-02T05:38:56.475Z,954.9
2023-05-02T05:39:59.034Z,954.9
2023-05-02T05:41:01.513Z,954.9
2023-05-02T05:42:03.253Z,954.9
2023-05-02T05:43:05.103Z,954.9
2023-05-02T05:44:06.896Z,955
2023-05-02T05:45:08.828Z,955
2023-05-02T05:46:10.707Z,955
2023-05-02T05:47:12.652Z,955
2023-05-02T05:48:15.303Z,955
2023-05-02T05:49:17.238Z,955
2023-05-02T05:50:19.185Z,955
2023-05-02T05:51:21.038Z,955
2023-05-02T05:52:22.890Z,954.9
2023-05-02T05:53:24.636Z,954.9
2023-05-02T05:54:26.315Z,955
2023-05-02T05:55:28.124Z,955
2023-05-02T05:56:29.956Z,955
2023-05-02T05:57:31.647Z,954.9
2023-05-02T05:58:33.392Z,955
2023-05-02T05:59:35.254Z,955
2023-05-02T06:00:36.905Z,955
2023-05-02T06:01:38.718Z,955
2023-05-02T06:02:40.671Z,955
2023-05-02T06:03:43.061Z,955
2023-05-02T06:04:45.295Z,955
2023-05-02T06:05:47.255Z,955
2023-05-02T06:06:49.523Z,955
2023-05-02T06:07:51.557Z,955.1
2023-05-02T06:08:53.495Z,955.1
2023-05-02T06:09:55.362Z,955.1
2023-05-02T06:10:57.221Z,955
2023-05-02T06:11:59.057Z,955
2023-05-02T06:13:00.908Z,955
2023-05-02T06:14:02.861Z,955
2023-05-02T06:15:04.504Z,955
2023-05-02T06:16:06.485Z,955
2023-05-02T06:17:08.406Z,955
2023-05-02T06:18:10.399Z,955
2023-05-02T06:19:12.247Z,954.9
2023-05-02T06:20:15.654Z,954.9
2023-05-02T06:21:20.319Z,954.9
2023-05-02T06:22:22.378Z,954.9
2023-05-02T06:23:24.131Z,954.9
2023-05-02T06:24:25.894Z,954.9
2023-05-02T06:25:27.620Z,954.9
2023-05-02T06:26:29.476Z,954.8
2023-05-02T06:27:34.087Z,954.9
2023-05-02T06:28:35.924Z,954.9
2023-05-02T06:29:37.687Z,954.9
2023-05-02T06:30:39.706Z,954.9
2023-05-02T06:31:41.715Z,954.9
2023-05-02T06:32:43.893Z,954.9
2023-05-02T06:33:45.769Z,954.9
2023-05-02T06:34:47.330Z,954.9
2023-05-02T06:35:49.088Z,954.9
2023-05-02T06:36:50.937Z,954.9
2023-05-02T06:37:52.681Z,954.9
2023-05-02T06:38:54.543Z,954.9
2023-05-02T06:39:56.280Z,954.8
2023-05-02T06:40:58.129Z,954.9
2023-05-02T06:41:59.880Z,954.8
2023-05-02T06:43:01.630Z,954.9
2023-05-02T06:44:03.474Z,954.9
2023-05-02T06:45:08.190Z,954.9
2023-05-02T06:46:10.179Z,954.9
2023-05-02T06:47:12.222Z,954.9
2023-05-02T06:48:14.197Z,954.9
2023-05-02T06:49:16.204Z,954.9
2023-05-02T06:50:17.954Z,954.8
2023-05-02T06:51:19.793Z,954.9
2023-05-02T06:52:21.557Z,954.9
2023-05-02T06:53:23.186Z,954.9
2023-05-02T06:54:24.845Z,954.8
2023-05-02T06:55:26.516Z,954.8
2023-05-02T06:56:28.446Z,954.8
2023-05-02T06:57:30.385Z,954.8
2023-05-02T06:58:32.346Z,954.8
2023-05-02T06:59:34.082Z,954.9
2023-05-02T07:00:35.927Z,954.8
2023-05-02T07:01:38.702Z,954.8
2023-05-02T07:02:40.941Z,954.8
2023-05-02T07:03:42.961Z,954.8
2023-05-02T07:04:45.284Z,954.8
2023-05-02T07:05:47.083Z,954.8
2023-05-02T07:06:49.205Z,954.8
2023-05-02T07:07:51.090Z,954.8
2023-05-02T07:08:53.068Z,954.8
2023-05-02T07:09:54.723Z,954.8
2023-05-02T07:10:56.332Z,954.7
2023-05-02T07:11:57.921Z,954.8
2023-05-02T07:12:59.530Z,954.8
2023-05-02T07:14:01.178Z,954.8
2023-05-02T07:15:02.874Z,954.8
2023-05-02T07:16:04.657Z,954.8
2023-05-02T07:17:06.825Z,954.8
2023-05-02T07:18:08.961Z,954.8
2023-05-02T07:19:10.872Z,954.8
2023-05-02T07:20:12.632Z,954.8
2023-05-02T07:21:14.496Z,954.8
2023-05-02T07:22:16.221Z,954.8
2023-05-02T07:23:18.022Z,954.8
2023-05-02T07:24:19.788Z,954.8
2023-05-02T07:25:21.413Z,954.8
2023-05-02T07:26:23.113Z,954.8
2023-05-02T07:27:24.956Z,954.8
2023-05-02T07:28:26.771Z,954.8
2023-05-02T07:29:28.445Z,954.8
2023-05-02T07:30:30.515Z,954.8
2023-05-02T07:31:32.377Z,954.8
2023-05-02T07:32:34.594Z,954.8
2023-05-02T07:33:36.614Z,954.8
2023-05-02T07:34:38.231Z,954.8
2023-05-02T07:35:39.965Z,954.8
2023-05-02T07:36:41.711Z,954.8
2023-05-02T07:37:43.524Z,954.8
2023-05-02T07:38:45.340Z,954.7
2023-05-02T07:39:47.063Z,954.8
2023-05-02T07:40:48.650Z,954.7
2023-05-02T07:41:50.301Z,954.8
2023-05-02T07:42:51.945Z,954.8
2023-05-02T07:43:53.662Z,954.8
2023-05-02T07:44:55.264Z,954.8
2023-05-02T07:45:57.073Z,954.8
2023-05-02T07:46:58.881Z,954.8
2023-05-02T07:48:00.798Z,954.8
2023-05-02T07:49:02.630Z,954.8
2023-05-02T07:50:04.948Z,954.8
2023-05-02T07:51:06.576Z,954.8
2023-05-02T07:52:08.165Z,954.8
2023-05-02T07:53:09.824Z,954.8
2023-05-02T07:54:11.435Z,954.8
2023-05-02T07:55:13.085Z,954.8
2023-05-02T07:56:14.862Z,954.8
2023-05-02T07:57:16.481Z,954.9
2023-05-02T07:58:18.213Z,954.8
2023-05-02T07:59:19.992Z,954.8
2023-05-02T08:00:21.798Z,954.8
2023-05-02T08:01:23.383Z,954.8
2023-05-02T08:02:25.330Z,954.8
2023-05-02T08:03:27.729Z,954.8
2023-05-02T08:04:30.262Z,954.8
2023-05-02T08:05:32.007Z,954.7
2023-05-02T08:06:33.958Z,954.7
2023-05-02T08:07:37.563Z,954.7
2023-05-02T08:08:39.337Z,954.7
2023-05-02T08:09:41.146Z,954.7
2023-05-02T08:10:42.996Z,954.8
2023-05-02T08:11:44.591Z,954.8
2023-05-02T08:12:48.933Z,954.8
2023-05-02T08:13:50.887Z,954.7
2023-05-02T08:14:52.506Z,954.8
2023-05-02T08:15:54.300Z,954.8
2023-05-02T08:16:56.225Z,954.8
2023-05-02T08:17:58.079Z,954.8
2023-05-02T08:18:59.959Z,954.7
2023-05-02T08:20:02.960Z,954.7
2023-05-02T08:21:04.853Z,954.7
2023-05-02T08:22:06.605Z,954.7
2023-05-02T08:23:08.360Z,954.7
2023-05-02T08:24:10.200Z,954.7
2023-05-02T08:25:11.974Z,954.7
2023-05-02T08:26:13.967Z,954.6
2023-05-02T08:27:15.618Z,954.7
2023-05-02T08:28:17.339Z,954.6
2023-05-02T08:29:18.932Z,954.7
2023-05-02T08:30:20.589Z,954.7
2023-05-02T08:31:22.591Z,954.7
2023-05-02T08:32:24.795Z,954.7
2023-05-02T08:33:26.532Z,954.6
2023-05-02T08:34:28.115Z,954.7
2023-05-02T08:35:29.753Z,954.7
2023-05-02T08:36:31.386Z,954.7
2023-05-02T08:37:33.180Z,954.7
2023-05-02T08:38:35.188Z,954.7
2023-05-02T08:39:37.036Z,954.7
2023-05-02T08:40:43.601Z,954.7
2023-05-02T08:41:45.438Z,954.7
2023-05-02T08:42:47.107Z,954.7
2023-05-02T08:43:48.809Z,954.7
2023-05-02T08:44:50.551Z,954.7
2023-05-02T08:45:52.173Z,954.7
2023-05-02T08:46:53.935Z,954.6
2023-05-02T08:47:55.954Z,954.8
2023-05-02T08:48:57.653Z,954.7
2023-05-02T08:49:59.993Z,954.7
2023-05-02T08:51:02.619Z,954.7
2023-05-02T08:52:04.222Z,954.7
2023-05-02T08:53:05.860Z,954.7
2023-05-02T08:54:07.525Z,954.7
2023-05-02T08:55:09.283Z,954.7
2023-05-02T08:56:10.955Z,954.7
2023-05-02T08:57:12.790Z,954.7
2023-05-02T08:58:18.022Z,954.7
2023-05-02T08:59:19.869Z,954.7
2023-05-02T09:00:22.648Z,954.6
2023-05-02T09:01:24.709Z,954.6
2023-05-02T09:02:27.028Z,954.6
2023-05-02T09:03:29.011Z,954.6
2023-05-02T09:04:30.992Z,954.6
2023-05-02T09:05:33.047Z,954.6
2023-05-02T09:06:35.717Z,954.6
2023-05-02T09:07:37.741Z,954.5
2023-05-02T09:08:39.691Z,954.5
2023-05-02T09:09:41.509Z,954.5
2023-05-02T09:10:43.287Z,954.5
2023-05-02T09:11:45.153Z,954.5
2023-05-02T09:12:46.998Z,954.5
2023-05-02T09:13:48.832Z,954.5
2023-05-02T09:14:50.698Z,954.5
2023-05-02T09:15:52.863Z,954.5
2023-05-02T09:16:54.711Z,954.5
2023-05-02T09:17:56.858Z,954.5
2023-05-02T09:18:58.659Z,954.6
2023-05-02T09:20:00.607Z,954.5
2023-05-02T09:21:02.307Z,954.5
2023-05-02T09:22:03.943Z,954.4
2023-05-02T09:23:05.645Z,954.4
2023-05-02T09:24:07.297Z,954.4
2023-05-02T09:25:09.260Z,954.4
2023-05-02T09:26:10.992Z,954.5
2023-05-02T09:27:12.599Z,954.4
2023-05-02T09:28:14.340Z,954.4
2023-05-02T09:29:15.915Z,954.4
2023-05-02T09:30:17.858Z,954.4
2023-05-02T09:31:56.699Z,954.4
2023-05-02T09:32:58.691Z,954.5
2023-05-02T09:34:00.591Z,954.3
2023-05-02T09:35:02.557Z,954.3
2023-05-02T09:36:04.247Z,954.4
2023-05-02T09:37:06.019Z,954.4
2023-05-02T09:38:07.655Z,954.4
2023-05-02T09:39:09.241Z,954.4
2023-05-02T09:40:10.889Z,954.3
2023-05-02T09:41:12.525Z,954.4
2023-05-02T09:42:14.369Z,954.3
2023-05-02T09:43:15.997Z,954.3
2023-05-02T09:44:17.612Z,954.3
2023-05-02T09:45:19.250Z,954.3
2023-05-02T09:46:21.025Z,954.3
2023-05-02T09:47:22.841Z,954.3
2023-05-02T09:48:24.454Z,954.3
2023-05-02T09:49:26.113Z,954.2
2023-05-02T09:50:27.734Z,954.3
2023-05-02T09:51:29.333Z,954.3
2023-05-02T09:52:30.996Z,954.3
2023-05-02T09:53:32.639Z,954.2
2023-05-02T09:54:34.686Z,954.2
2023-05-02T09:55:36.347Z,954.2
2023-05-02T09:56:37.913Z,954.2
2023-05-02T09:57:39.592Z,954.2
2023-05-02T09:58:41.192Z,954.2
2023-05-02T09:59:42.912Z,954.2
2023-05-02T10:00:44.512Z,954.2
2023-05-02T10:01:46.215Z,954.2
2023-05-02T10:02:48.049Z,954.2
2023-05-02T10:03:49.978Z,954.2
2023-05-02T10:04:51.810Z,954.2
2023-05-02T10:05:53.402Z,954.2
2023-05-02T10:06:54.983Z,954.1
2023-05-02T10:07:56.813Z,954.1
2023-05-02T10:08:58.431Z,954.1
2023-05-02T10:10:00.159Z,954.1
2023-05-02T10:11:01.868Z,954.1
2023-05-02T10:12:03.527Z,954.1
2023-05-02T10:13:05.253Z,954.1
2023-05-02T10:14:06.843Z,954
2023-05-02T10:15:08.484Z,954
2023-05-02T10:16:10.337Z,954
2023-05-02T10:17:12.040Z,954
2023-05-02T10:18:13.848Z,954
2023-05-02T10:19:15.714Z,954
2023-05-02T10:20:17.665Z,954
2023-05-02T10:21:19.616Z,954
2023-05-02T10:22:21.362Z,954
2023-05-02T10:23:23.244Z,954
2023-05-02T10:24:25.097Z,954
2023-05-02T10:25:26.918Z,954
2023-05-02T10:26:28.761Z,953.9
2023-05-02T10:27:30.763Z,953.9
2023-05-02T10:28:32.465Z,954
2023-05-02T10:29:34.084Z,953.9
2023-05-02T10:30:35.966Z,953.9
2023-05-02T10:31:38.088Z,953.9
2023-05-02T10:32:40.192Z,953.9
2023-05-02T10:33:42.017Z,953.9
2023-05-02T10:34:43.865Z,953.9
2023-05-02T10:35:45.472Z,953.9
2023-05-02T10:36:47.251Z,953.8
2023-05-02T10:37:49.101Z,953.9
2023-05-02T10:38:50.897Z,953.8
2023-05-02T10:39:52.703Z,953.8
2023-05-02T10:40:55.573Z,953.8
2023-05-02T10:41:57.369Z,953.8
2023-05-02T10:42:59.169Z,953.8
2023-05-02T10:44:00.921Z,953.8
2023-05-02T10:45:03.416Z,953.8
2023-05-02T10:46:05.438Z,953.8
2023-05-02T10:47:07.328Z,953.8
2023-05-02T10:48:09.378Z,953.8
2023-05-02T10:49:11.109Z,953.8
2023-05-02T10:50:12.851Z,953.8
2023-05-02T10:51:14.668Z,953.8
2023-05-02T10:52:16.427Z,953.8
2023-05-02T10:53:18.283Z,953.8
2023-05-02T10:54:20.219Z,953.8
2023-05-02T10:55:22.118Z,953.8
2023-05-02T10:56:23.935Z,953.7
2023-05-02T10:57:31.027Z,953.7
2023-05-02T10:58:32.636Z,953.8
2023-05-02T10:59:34.512Z,953.8
2023-05-02T11:00:36.515Z,953.7
2023-05-02T11:01:38.611Z,953.7
2023-05-02T11:02:40.560Z,953.7
2023-05-02T11:03:42.284Z,953.7
2023-05-02T11:04:44.272Z,953.6
2023-05-02T11:05:45.995Z,953.6
2023-05-02T11:06:47.970Z,953.6
2023-05-02T11:07:49.824Z,953.7
2023-05-02T11:08:51.465Z,953.7
2023-05-02T11:09:53.159Z,953.7
2023-05-02T11:10:54.859Z,953.7
2023-05-02T11:11:56.800Z,953.7
2023-05-02T11:12:58.562Z,953.7
2023-05-02T11:14:00.477Z,953.7
2023-05-02T11:15:03.297Z,953.6
2023-05-02T11:16:05.663Z,953.6
2023-05-02T11:17:07.804Z,953.6
2023-05-02T11:18:10.088Z,953.6
2023-05-02T11:19:11.953Z,953.6
2023-05-02T11:20:13.879Z,953.6
2023-05-02T11:21:15.761Z,953.6
2023-05-02T11:22:17.609Z,953.6
2023-05-02T11:23:19.721Z,953.6
2023-05-02T11:24:21.562Z,953.7
2023-05-02T11:25:23.624Z,953.5
2023-05-02T11:26:25.476Z,953.6
2023-05-02T11:27:27.243Z,953.5
2023-05-02T11:28:28.983Z,953.6
2023-05-02T11:29:30.825Z,953.5
2023-05-02T11:30:32.792Z,953.5
2023-05-02T11:31:34.643Z,953.5
2023-05-02T11:32:36.704Z,953.6
2023-05-02T11:33:38.538Z,953.5
2023-05-02T11:34:40.192Z,953.5
2023-05-02T11:35:41.819Z,953.5
2023-05-02T11:36:43.466Z,953.5
2023-05-02T11:37:45.117Z,953.5
2023-05-02T11:38:46.852Z,953.5
2023-05-02T11:39:48.612Z,953.6
2023-05-02T11:40:50.329Z,953.5
2023-05-02T11:41:52.205Z,953.5
2023-05-02T11:42:53.938Z,953.4
2023-05-02T11:43:56.101Z,953.5
2023-05-02T11:44:58.380Z,953.5
2023-05-02T11:46:01.678Z,953.4
2023-05-02T11:47:04.305Z,953.4
2023-05-02T11:48:06.494Z,953.4
2023-05-02T11:49:12.663Z,953.4
2023-05-02T11:50:16.334Z,953.3
2023-05-02T11:51:18.159Z,953.4
2023-05-02T11:52:20.013Z,953.4
2023-05-02T11:53:21.789Z,953.4
2023-05-02T11:54:23.431Z,953.4
2023-05-02T11:55:25.021Z,953.4
2023-05-02T11:56:26.681Z,953.4
2023-05-02T11:57:28.376Z,953.4
2023-05-02T11:58:30.426Z,953.4
2023-05-02T11:59:32.269Z,953.3
2023-05-02T12:00:34.008Z,953.3
2023-05-02T12:01:35.773Z,953.4
2023-05-02T12:02:38.165Z,953.3
2023-05-02T12:03:40.723Z,953.3
2023-05-02T12:04:42.848Z,953.3
2023-05-02T12:05:44.581Z,953.2
2023-05-02T12:06:46.492Z,953.3
2023-05-02T12:07:48.280Z,953.2
2023-05-02T12:08:50.229Z,953.2
2023-05-02T12:09:52.004Z,953.2
2023-05-02T12:10:53.845Z,953.1
2023-05-02T12:11:55.703Z,953.1
2023-05-02T12:12:57.523Z,953.1
2023-05-02T12:13:59.373Z,953.1
2023-05-02T12:15:02.102Z,953.1
2023-05-02T12:16:04.633Z,953.1
2023-05-02T12:17:06.562Z,953.1
2023-05-02T12:18:08.524Z,953.1
2023-05-02T12:19:10.465Z,953
2023-05-02T12:20:12.275Z,953
2023-05-02T12:21:13.968Z,953
2023-05-02T12:22:15.639Z,952.9
2023-05-02T12:23:17.354Z,953
2023-05-02T12:24:19.038Z,953
2023-05-02T12:25:20.951Z,953
2023-05-02T12:26:23.021Z,953
2023-05-02T12:27:24.790Z,953.1
2023-05-02T12:28:26.725Z,953
2023-05-02T12:29:28.692Z,953
2023-05-02T12:30:30.491Z,953
2023-05-02T12:31:32.641Z,953
2023-05-02T12:32:34.840Z,952.9
2023-05-02T12:33:36.685Z,952.9
2023-05-02T12:34:38.521Z,952.9
2023-05-02T12:35:40.331Z,952.9
2023-05-02T12:36:42.255Z,952.9
2023-05-02T12:37:47.342Z,952.9
2023-05-02T12:38:49.204Z,952.8
2023-05-02T12:39:51.334Z,952.8
2023-05-02T12:40:53.217Z,952.8
2023-05-02T12:41:55.084Z,952.8
2023-05-02T12:42:56.934Z,952.7
2023-05-02T12:43:58.710Z,952.7
2023-05-02T12:45:00.617Z,952.7
2023-05-02T12:46:02.571Z,952.7
2023-05-02T12:47:04.546Z,952.7
2023-05-02T12:48:06.483Z,952.7
2023-05-02T12:49:08.367Z,952.7
2023-05-02T12:50:10.403Z,952.6
2023-05-02T12:51:12.131Z,952.7
2023-05-02T12:52:13.999Z,952.7
2023-05-02T12:53:15.715Z,952.7
2023-05-02T12:54:17.565Z,952.6
2023-05-02T12:55:19.515Z,952.7
2023-05-02T12:56:21.268Z,952.7
2023-05-02T12:57:23.012Z,952.7
2023-05-02T12:58:24.887Z,952.7
2023-05-02T12:59:26.607Z,952.7
2023-05-02T13:00:28.471Z,952.7
2023-05-02T13:01:30.244Z,952.6
2023-05-02T13:02:32.417Z,952.7
2023-05-02T13:03:34.893Z,952.6
2023-05-02T13:04:36.789Z,952.7
2023-05-02T13:05:38.649Z,952.7
2023-05-02T13:06:40.604Z,952.7
2023-05-02T13:07:42.539Z,952.7
2023-05-02T13:08:44.383Z,952.7
2023-05-02T13:09:46.240Z,952.7
2023-05-02T13:10:48.088Z,952.7
2023-05-02T13:11:49.809Z,952.7
2023-05-02T13:12:51.482Z,952.7
2023-05-02T13:13:53.376Z,952.6
2023-05-02T13:14:55.324Z,952.7
2023-05-02T13:15:57.244Z,952.7
2023-05-02T13:16:59.469Z,952.7
2023-05-02T13:18:01.976Z,952.8
2023-05-02T13:19:04.528Z,952.7
2023-05-02T13:20:07.304Z,952.8
2023-05-02T13:21:09.764Z,952.8
2023-05-02T13:22:11.709Z,952.8
2023-05-02T13:23:13.599Z,952.7
2023-05-02T13:24:15.428Z,952.8